Time;durP1;ratioP1;P1;durP2;ratioP2;P2;SDS_P1;SDS_P2;PMS_P1;PMS_P2;Temp;Humidity;BMP_temperature;BMP_pressure;BME280_temperature;BME280_humidity;BME280_pressure;Samples;Min_cycle;Max_cycle;Signal;HPM_P1;HPM_P2
2020/12/28 00:01:41;;;;;;;5.73;3.63;;;3.00;99.90;;;3.79;63.05;97247.53;4750746;30;20220;-68
2020/12/28 00:04:09;;;;;;;4.20;3.40;;;3.00;99.90;;;3.83;63.15;97241.44;4750263;30;20308;-68
2020/12/28 00:06:36;;;;;;;5.33;3.70;;;3.00;99.90;;;3.84;63.09;97224.41;4750624;30;20304;-69
2020/12/28 00:09:06;;;;;;;6.70;3.80;;;2.90;99.90;;;3.96;63.00;97238.38;4752604;30;20703;-68
2020/12/28 00:11:33;;;;;;;4.80;3.60;;;3.00;99.90;;;4.20;62.22;97247.72;4753543;30;20224;-68
2020/12/28 00:14:00;;;;;;;5.67;4.20;;;3.10;99.90;;;3.97;63.55;97245.34;4753690;30;20249;-69
2020/12/28 00:16:28;;;;;;;5.40;3.93;;;3.00;99.90;;;4.36;61.91;97248.66;4754065;30;20212;-68
2020/12/28 00:18:55;;;;;;;5.27;4.27;;;3.20;99.90;;;3.92;63.27;97244.47;4753959;30;20308;-69
2020/12/28 00:21:22;;;;;;;4.90;4.17;;;3.10;99.90;;;3.65;64.15;97261.19;4753771;30;20212;-69
2020/12/28 00:23:49;;;;;;;4.77;3.83;;;3.00;99.90;;;3.94;63.36;97258.34;4753950;30;20213;-69
2020/12/28 00:26:17;;;;;;;5.23;3.97;;;3.00;99.90;;;3.98;63.56;97248.78;4753141;30;20748;-69
2020/12/28 00:28:44;;;;;;;4.77;3.43;;;3.00;99.90;;;3.83;63.61;97240.63;4753583;30;20243;-69
2020/12/28 00:31:12;;;;;;;4.73;3.73;;;3.00;99.90;;;3.82;62.96;97244.34;4753791;30;20285;-69
2020/12/28 00:33:40;;;;;;;5.30;3.77;;;3.00;99.90;;;3.63;64.40;97241.19;4753771;30;20300;-69
2020/12/28 00:36:07;;;;;;;3.90;3.37;;;2.90;99.90;;;3.54;64.93;97248.81;4753751;30;20295;-69
2020/12/28 00:38:37;;;;;;;5.63;3.40;;;2.80;99.90;;;3.78;64.47;97254.69;4753519;30;20223;-68
2020/12/28 00:41:04;;;;;;;4.43;3.30;;;2.80;99.90;;;3.84;63.68;97245.69;4753442;30;20339;-69
2020/12/28 00:43:31;;;;;;;4.70;3.40;;;2.90;99.90;;;3.79;63.70;97242.97;4753579;30;20237;-68
2020/12/28 00:45:58;;;;;;;5.53;3.37;;;2.90;99.90;;;3.72;64.78;97234.41;4753564;30;20277;-69
2020/12/28 00:48:25;;;;;;;5.47;3.60;;;2.80;99.90;;;3.95;63.86;97247.44;4753041;30;20652;-68
2020/12/28 00:50:53;;;;;;;3.70;3.10;;;2.90;99.90;;;3.80;63.94;97246.44;4753265;30;20743;-67
2020/12/28 00:53:20;;;;;;;4.30;3.20;;;2.90;99.90;;;4.02;63.42;97249.91;4753484;30;20624;-69
2020/12/28 00:55:48;;;;;;;4.97;3.27;;;2.90;99.90;;;3.91;63.64;97240.22;4752811;30;20270;-68
2020/12/28 00:58:16;;;;;;;4.53;3.13;;;3.00;99.90;;;3.86;63.51;97232.94;4753153;30;20744;-67
2020/12/28 01:00:43;;;;;;;4.00;2.87;;;3.00;99.90;;;3.63;63.88;97235.88;4753059;30;20243;-69
2020/12/28 01:03:10;;;;;;;4.23;2.80;;;2.90;99.90;;;3.87;63.13;97234.56;4753281;30;20220;-68
2020/12/28 01:05:37;;;;;;;2.90;2.60;;;2.90;99.90;;;3.78;63.45;97213.94;4752836;30;20701;-67
2020/12/28 01:08:05;;;;;;;3.27;2.90;;;2.90;99.90;;;3.45;64.55;97229.00;4753225;30;20295;-69
2020/12/28 01:10:32;;;;;;;3.47;2.53;;;2.80;99.90;;;3.41;63.98;97219.91;4752445;30;20562;-68
2020/12/28 01:13:00;;;;;;;3.07;2.60;;;2.70;99.90;;;3.74;63.67;97201.16;4752976;30;20221;-68
2020/12/28 01:15:27;;;;;;;3.47;2.57;;;2.70;99.90;;;3.81;62.42;97173.50;4753107;30;20300;-68
2020/12/28 01:17:55;;;;;;;3.23;2.70;;;2.80;99.90;;;3.81;62.55;97179.66;4752839;30;20310;-68
2020/12/28 01:20:22;;;;;;;4.83;3.37;;;2.90;99.90;;;4.00;61.97;97158.81;4752130;30;20271;-68
2020/12/28 01:22:49;;;;;;;5.80;3.10;;;2.90;99.90;;;4.01;61.94;97147.13;4752957;30;20217;-69
2020/12/28 01:25:18;;;;;;;4.53;3.20;;;3.00;99.90;;;3.76;62.00;97160.97;4752471;30;20302;-68
2020/12/28 01:27:45;;;;;;;3.07;2.50;;;3.00;99.90;;;3.75;62.12;97167.34;4752523;30;20317;-68
2020/12/28 01:30:12;;;;;;;3.87;2.90;;;2.90;99.90;;;3.76;62.47;97166.28;4744743;30;20263;-60
2020/12/28 01:32:41;;;;;;;5.10;3.00;;;2.90;99.90;;;3.92;62.38;97159.28;4735258;30;20212;-59
2020/12/28 01:35:08;;;;;;;3.90;3.10;;;2.90;99.90;;;3.77;62.90;97153.78;4735195;30;20304;-60
2020/12/28 01:37:35;;;;;;;3.87;2.90;;;2.90;99.90;;;3.64;63.83;97153.13;4734740;30;20709;-59
2020/12/28 01:40:03;;;;;;;4.17;3.43;;;2.80;99.90;;;3.70;63.62;97154.00;4734641;30;20251;-60
2020/12/28 01:42:31;;;;;;;4.83;3.33;;;2.90;99.90;;;3.71;63.82;97147.59;4734926;30;20212;-60
2020/12/28 01:44:59;;;;;;;3.93;3.30;;;2.90;99.90;;;3.72;64.42;97147.34;4735011;30;20242;-60
2020/12/28 01:47:27;;;;;;;4.97;3.50;;;2.80;99.90;;;3.58;64.69;97146.16;4734741;30;20279;-67
2020/12/28 01:49:54;;;;;;;4.90;3.30;;;2.80;99.90;;;3.68;65.25;97143.59;4734374;30;20310;-69
2020/12/28 01:52:22;;;;;;;4.60;3.43;;;2.80;99.90;;;3.84;63.76;97152.53;4734640;30;20458;-69
2020/12/28 01:54:49;;;;;;;5.00;3.90;;;2.80;99.90;;;3.98;63.60;97145.75;4734419;30;20311;-68
2020/12/28 01:57:18;;;;;;;3.93;2.93;;;2.90;99.90;;;3.89;63.24;97136.59;4734414;30;20212;-68
2020/12/28 01:59:46;;;;;;;3.93;3.00;;;2.90;99.90;;;3.69;64.57;97134.56;4734596;30;20300;-67
2020/12/28 02:02:13;;;;;;;4.13;3.37;;;2.90;99.90;;;3.93;63.41;97137.72;4734681;30;20305;-68
2020/12/28 02:04:41;;;;;;;4.10;3.10;;;2.90;99.90;;;3.85;64.13;97129.38;4734863;30;20304;-68
2020/12/28 02:07:10;;;;;;;4.53;3.17;;;2.90;99.90;;;3.76;64.18;97126.38;4734584;30;20235;-68
2020/12/28 02:09:44;;;;;;;4.13;3.30;;;2.90;99.90;;;4.07;63.16;97125.59;4734158;30;20252;-67
2020/12/28 02:12:11;;;;;;;4.03;2.90;;;2.90;99.90;;;3.80;64.31;97121.34;4734472;30;20624;-69
2020/12/28 02:14:39;;;;;;;4.80;3.63;;;2.90;99.90;;;3.61;64.96;97121.69;4734515;30;20656;-68
2020/12/28 02:17:07;;;;;;;6.00;3.10;;;2.90;99.90;;;3.73;64.64;97113.56;4734427;30;20238;-68
2020/12/28 02:19:34;;;;;;;4.37;3.37;;;2.90;99.90;;;3.88;63.91;97107.56;4734132;30;20260;-69
2020/12/28 02:22:02;;;;;;;4.50;3.30;;;2.90;99.90;;;3.88;63.68;97103.06;4734296;30;20298;-68
2020/12/28 02:24:29;;;;;;;4.43;3.20;;;2.90;99.90;;;3.79;64.52;97104.56;4733692;30;20660;-68
2020/12/28 02:26:56;;;;;;;4.40;3.33;;;2.90;99.90;;;3.73;65.65;97106.38;4748055;30;20323;-68
2020/12/28 02:29:24;;;;;;;4.60;3.60;;;2.90;99.90;;;3.76;65.35;97097.09;4751842;30;20320;-68
2020/12/28 02:31:51;;;;;;;4.07;3.27;;;2.90;99.90;;;3.96;64.65;97094.59;4751403;30;20218;-68
2020/12/28 02:34:18;;;;;;;4.20;3.17;;;2.90;99.90;;;3.88;64.91;97084.41;4751726;30;20216;-68
2020/12/28 02:36:45;;;;;;;3.67;3.20;;;2.90;99.90;;;3.92;65.52;97090.88;4751488;30;20206;-68
2020/12/28 02:39:13;;;;;;;6.03;3.40;;;2.90;99.90;;;3.84;65.72;97085.97;4751397;30;20212;-68
2020/12/28 02:41:41;;;;;;;5.53;3.63;;;3.00;99.90;;;3.73;65.91;97081.63;4751160;30;20590;-68
2020/12/28 02:44:08;;;;;;;4.57;3.20;;;2.90;99.90;;;3.90;65.26;97084.97;4751573;30;20234;-68
2020/12/28 02:46:35;;;;;;;4.13;3.57;;;3.00;99.90;;;3.74;66.43;97069.91;4751268;30;20329;-68
2020/12/28 02:49:02;;;;;;;4.37;3.27;;;2.90;99.90;;;3.62;66.94;97085.22;4751098;30;20343;-68
2020/12/28 02:51:29;;;;;;;4.73;3.30;;;2.90;99.90;;;3.79;66.18;97075.28;4751320;30;20218;-67
2020/12/28 02:53:57;;;;;;;5.37;3.70;;;2.90;99.90;;;3.57;67.16;97085.19;4751271;30;20216;-68
2020/12/28 02:56:25;;;;;;;5.40;3.77;;;2.80;99.90;;;3.72;66.68;97077.38;4751232;30;20300;-68
2020/12/28 02:58:53;;;;;;;5.23;3.43;;;2.90;99.90;;;3.87;66.23;97077.50;4751476;30;20218;-68
2020/12/28 03:01:20;;;;;;;4.10;3.07;;;2.90;99.90;;;3.76;66.84;97081.13;4751452;30;20250;-69
2020/12/28 03:03:48;;;;;;;4.57;3.50;;;2.90;99.90;;;3.65;67.82;97069.56;4751150;30;20248;-68
2020/12/28 03:06:16;;;;;;;4.93;3.47;;;2.80;99.90;;;3.61;68.07;97073.81;4751285;30;20229;-67
2020/12/28 03:08:43;;;;;;;5.27;3.67;;;2.80;99.90;;;3.36;69.26;97080.72;4750997;30;20243;-68
2020/12/28 03:11:10;;;;;;;5.17;3.73;;;2.70;99.90;;;3.59;68.32;97070.59;4751005;30;20293;-68
2020/12/28 03:13:38;;;;;;;4.47;3.57;;;2.70;99.90;;;3.65;67.27;97071.44;4751184;30;20242;-68
2020/12/28 03:16:06;;;;;;;5.60;3.80;;;2.70;99.90;;;3.68;67.24;97063.75;4751138;30;20253;-68
2020/12/28 03:18:33;;;;;;;4.90;3.83;;;2.70;99.90;;;3.85;66.88;97063.63;4751192;30;20318;-68
2020/12/28 03:21:00;;;;;;;6.60;3.83;;;2.70;99.90;;;3.56;67.82;97049.00;4751217;30;20304;-68
2020/12/28 03:23:27;;;;;;;5.23;3.63;;;2.70;99.90;;;3.60;67.60;97042.13;4750907;30;20295;-68
2020/12/28 03:25:54;;;;;;;5.53;3.70;;;2.70;99.90;;;3.61;67.32;97033.06;4750937;30;20239;-68
2020/12/28 03:28:21;;;;;;;4.40;3.63;;;2.70;99.90;;;3.73;66.48;97033.72;4751071;30;20208;-67
2020/12/28 03:30:49;;;;;;;5.70;3.90;;;2.70;99.90;;;3.53;67.58;97029.03;4750796;30;20259;-67
2020/12/28 03:33:17;;;;;;;5.73;4.30;;;2.70;99.90;;;3.45;67.89;97026.00;4751045;30;20313;-67
2020/12/28 03:35:44;;;;;;;5.13;3.93;;;2.70;99.90;;;3.60;67.42;97013.63;4750957;30;20301;-67
2020/12/28 03:38:11;;;;;;;5.13;3.60;;;2.70;99.90;;;3.59;67.80;97012.03;4750344;30;20690;-67
2020/12/28 03:40:39;;;;;;;5.37;4.20;;;2.70;99.90;;;3.49;67.81;97017.28;4750564;30;20322;-67
2020/12/28 03:43:06;;;;;;;5.70;4.50;;;2.70;99.90;;;3.61;67.86;97019.78;4752991;30;20252;-68
2020/12/28 03:45:33;;;;;;;6.43;4.30;;;2.60;99.90;;;3.65;67.72;97013.69;4756803;30;20309;-67
2020/12/28 03:48:01;;;;;;;5.37;4.37;;;2.70;99.90;;;3.71;67.76;97007.34;4756660;30;20240;-68
2020/12/28 03:50:28;;;;;;;7.23;4.27;;;2.70;99.90;;;3.71;67.84;96999.38;4756401;30;20328;-68
2020/12/28 03:52:56;;;;;;;5.90;4.30;;;2.70;99.90;;;3.83;67.64;96985.88;4756472;30;20252;-68
2020/12/28 03:55:23;;;;;;;6.80;4.90;;;2.80;99.90;;;3.78;68.26;96977.88;4756615;30;20300;-67
2020/12/28 03:57:50;;;;;;;6.80;4.50;;;2.80;99.90;;;3.66;68.72;96977.22;4756617;30;20208;-68
2020/12/28 04:00:18;;;;;;;6.43;4.30;;;2.90;99.90;;;3.70;68.98;96986.31;4756658;30;20255;-68
2020/12/28 04:02:45;;;;;;;6.53;4.57;;;2.80;99.90;;;3.67;69.60;96970.84;4756677;30;20303;-68
2020/12/28 04:05:13;;;;;;;6.43;4.90;;;2.80;99.90;;;3.64;69.75;96979.34;4756655;30;20265;-67
2020/12/28 04:07:40;;;;;;;7.43;4.97;;;2.80;99.90;;;3.54;70.77;96971.28;4756024;30;20639;-67
2020/12/28 04:10:08;;;;;;;7.63;5.20;;;2.70;99.90;;;3.57;70.29;96978.75;4756477;30;20243;-67
2020/12/28 04:12:35;;;;;;;6.63;5.20;;;2.70;99.90;;;3.64;70.21;96961.53;4756184;30;20756;-67
2020/12/28 04:15:02;;;;;;;6.33;4.97;;;2.70;99.90;;;3.69;70.24;96964.22;4756594;30;20311;-68
2020/12/28 04:17:29;;;;;;;7.27;4.83;;;2.70;99.90;;;3.55;70.93;96956.94;4756762;30;20321;-68
2020/12/28 04:19:58;;;;;;;7.03;5.30;;;2.70;99.90;;;3.49;71.94;96964.06;4756419;30;20212;-69
2020/12/28 04:22:26;;;;;;;8.73;5.37;;;2.70;99.90;;;3.56;71.54;96959.34;4756157;30;20208;-68
2020/12/28 04:24:54;;;;;;;7.93;5.17;;;2.70;99.90;;;3.55;71.96;96960.38;4756390;30;20252;-67
2020/12/28 04:27:21;;;;;;;8.00;5.20;;;2.70;99.90;;;3.68;71.68;96953.84;4756174;30;20265;-68
2020/12/28 04:29:48;;;;;;;6.87;5.47;;;2.70;99.90;;;3.63;72.23;96956.47;4756183;30;20254;-68
2020/12/28 04:32:17;;;;;;;7.53;5.50;;;2.70;99.90;;;3.50;73.12;96955.00;4756014;30;20216;-68
2020/12/28 04:34:44;;;;;;;7.53;5.27;;;2.70;99.90;;;3.66;72.25;96953.28;4756372;30;20762;-68
2020/12/28 04:37:11;;;;;;;8.43;5.53;;;2.80;99.90;;;3.59;72.97;96953.50;4756102;30;20234;-67
2020/12/28 04:39:39;;;;;;;6.40;5.37;;;2.80;99.90;;;3.91;72.53;96953.47;4756272;30;20243;-68
2020/12/28 04:42:06;;;;;;;6.87;4.90;;;2.90;99.90;;;3.54;74.87;96950.00;4756328;30;20317;-67
2020/12/28 04:44:34;;;;;;;7.27;4.67;;;2.80;99.90;;;3.54;76.37;96950.00;4756354;30;20541;-68
2020/12/28 04:47:01;;;;;;;7.17;5.10;;;2.70;99.90;;;3.58;76.13;96946.59;4756318;30;20268;-68
2020/12/28 04:49:29;;;;;;;6.60;5.10;;;2.70;99.90;;;3.69;74.77;96944.78;4755828;30;20756;-67
2020/12/28 04:51:58;;;;;;;7.37;5.30;;;2.80;99.90;;;3.57;76.39;96926.34;4756007;30;20590;-68
2020/12/28 04:54:25;;;;;;;7.07;5.20;;;2.70;99.90;;;3.51;77.01;96929.22;4755470;30;20246;-67
2020/12/28 04:56:54;;;;;;;6.93;5.67;;;2.70;99.90;;;3.44;77.19;96928.63;4753237;30;20300;-67
2020/12/28 04:59:21;;;;;;;6.70;5.07;;;2.70;99.90;;;3.50;76.72;96923.09;4753448;30;20775;-68
2020/12/28 05:01:54;;;;;;;6.90;5.37;;;2.60;99.90;;;3.09;78.29;96930.97;4753456;30;20312;-67
2020/12/28 05:04:24;;;;;;;7.17;5.30;;;2.50;99.90;;;3.08;78.61;96942.69;4753065;30;20299;-67
2020/12/28 05:06:59;;;;;;;7.77;5.57;;;2.30;99.90;;;2.81;80.03;96942.66;4752862;30;20236;-67
2020/12/28 05:09:28;;;;;;;7.03;5.37;;;2.20;99.90;;;2.81;79.98;96947.19;4753017;30;20242;-68
2020/12/28 05:11:59;;;;;;;6.63;5.07;;;2.10;99.90;;;2.95;79.62;96951.03;4753031;30;20278;-68
2020/12/28 05:14:27;;;;;;;10.23;5.97;;;2.00;99.90;;;2.90;79.77;96943.00;4752967;30;20612;-68
2020/12/28 05:16:59;;;;;;;7.37;5.30;;;2.00;99.90;;;2.75;80.93;96945.50;4752806;30;20212;-67
2020/12/28 05:19:27;;;;;;;7.17;5.63;;;1.90;99.90;;;2.69;81.36;96928.69;4752950;30;20259;-68
2020/12/28 05:21:55;;;;;;;9.90;5.83;;;1.90;99.90;;;2.55;82.35;96930.16;4752681;30;20727;-67
2020/12/28 05:24:23;;;;;;;8.07;5.43;;;1.80;99.90;;;2.50;82.92;96936.19;4752725;30;20220;-68
2020/12/28 05:26:51;;;;;;;8.10;5.37;;;1.80;99.90;;;2.72;81.98;96930.06;4752295;30;20322;-68
2020/12/28 05:29:22;;;;;;;7.03;5.10;;;1.80;99.90;;;2.82;81.26;96924.88;4752994;30;20244;-69
2020/12/28 05:31:51;;;;;;;8.37;4.90;;;1.80;99.90;;;2.60;81.95;96926.75;4752566;30;20283;-68
2020/12/28 05:34:21;;;;;;;8.43;5.20;;;1.80;99.90;;;2.70;82.06;96926.84;4752633;30;20762;-68
2020/12/28 05:36:50;;;;;;;6.03;4.97;;;1.80;99.90;;;2.75;81.55;96926.91;4752491;30;20274;-59
2020/12/28 05:39:21;;;;;;;7.07;5.60;;;1.80;99.90;;;2.73;81.06;96918.38;4752471;30;20273;-60
2020/12/28 05:42:06;;;;;;;7.00;5.13;;;1.90;99.90;;;2.80;81.95;96913.69;4752503;30;20193;-58
2020/12/28 05:44:35;;;;;;;7.23;4.97;;;1.90;99.90;;;2.78;80.97;96907.81;4752788;30;20254;-59
2020/12/28 05:47:07;;;;;;;6.70;5.10;;;1.90;99.90;;;2.70;81.49;96902.94;4752514;30;20323;-60
2020/12/28 05:49:37;;;;;;;6.10;4.87;;;1.90;99.90;;;2.62;82.42;96904.19;4752271;30;20251;-60
2020/12/28 05:52:07;;;;;;;7.03;5.13;;;1.90;99.90;;;2.55;82.72;96897.47;4752006;30;20734;-59
2020/12/28 05:54:35;;;;;;;7.97;5.60;;;1.80;99.90;;;2.70;82.13;96898.44;4752427;30;20287;-59
2020/12/28 05:57:04;;;;;;;7.20;5.33;;;1.80;99.90;;;2.71;81.93;96904.53;4752364;30;20295;-59
2020/12/28 05:59:32;;;;;;;6.80;4.90;;;1.80;99.90;;;2.80;81.43;96900.38;4752154;30;20643;-60
2020/12/28 06:02:02;;;;;;;6.47;4.97;;;1.90;99.90;;;2.70;81.64;96897.63;4752342;30;20212;-59
2020/12/28 06:04:30;;;;;;;7.57;5.00;;;1.90;99.90;;;2.75;81.94;96892.38;4752400;30;20216;-59
2020/12/28 06:07:03;;;;;;;7.53;5.30;;;1.90;99.90;;;2.64;82.14;96894.09;4751656;30;20220;-60
2020/12/28 06:09:31;;;;;;;5.93;5.13;;;1.80;99.90;;;2.69;82.36;96894.16;4752106;30;20220;-59
2020/12/28 06:12:03;;;;;;;7.03;5.60;;;1.80;99.90;;;2.70;82.10;96898.44;4752012;30;20265;-60
2020/12/28 06:14:35;;;;;;;7.40;5.37;;;1.80;99.90;;;2.70;82.32;96900.28;4751959;30;20221;-59
2020/12/28 06:17:09;;;;;;;7.23;4.83;;;1.80;99.90;;;2.63;82.50;96902.31;4752079;30;20208;-59
2020/12/28 06:19:37;;;;;;;6.73;5.30;;;1.80;99.90;;;2.60;82.74;96905.50;4751781;30;20197;-58
2020/12/28 06:22:18;;;;;;;7.23;5.37;;;1.80;99.90;;;2.54;82.85;96907.28;4751474;30;20683;-59
2020/12/28 06:24:57;;;;;;;7.03;5.13;;;1.80;99.90;;;2.62;83.39;96916.69;4751918;30;20197;-59
2020/12/28 06:27:31;;;;;;;8.53;5.83;;;1.80;99.90;;;2.79;82.14;96918.19;4751491;30;20654;-60
2020/12/28 06:30:10;;;;;;;7.17;5.53;;;1.80;99.90;;;2.70;82.43;96916.22;4751910;30;20200;-59
2020/12/28 06:32:39;;;;;;;6.80;4.97;;;1.80;99.90;;;2.93;81.72;96927.38;4752080;30;20302;-60
2020/12/28 06:35:09;;;;;;;6.80;4.87;;;1.80;99.90;;;2.83;81.96;96937.09;4751161;30;20212;-59
2020/12/28 06:37:42;;;;;;;6.13;5.17;;;1.90;99.90;;;2.84;81.98;96934.16;4751390;30;20283;-59
2020/12/28 06:40:13;;;;;;;7.70;5.57;;;1.90;99.90;;;2.83;82.01;96950.38;4751630;30;20279;-59
2020/12/28 06:42:41;;;;;;;7.13;5.17;;;2.00;99.90;;;2.75;82.76;96959.59;4751266;30;20555;-59
2020/12/28 06:45:15;;;;;;;6.13;5.00;;;2.00;99.90;;;2.87;82.33;96968.25;4751726;30;20250;-59
2020/12/28 06:47:44;;;;;;;6.83;4.90;;;2.00;99.90;;;3.12;81.11;96967.69;4751531;30;20676;-59
2020/12/28 06:50:12;;;;;;;5.93;5.10;;;2.10;99.90;;;2.91;82.23;96968.56;4750867;30;20236;-59
2020/12/28 06:52:40;;;;;;;6.77;5.00;;;2.10;99.90;;;3.03;81.46;96961.22;4750999;30;20232;-59
2020/12/28 06:55:11;;;;;;;7.20;5.57;;;2.10;99.90;;;3.14;81.11;96961.09;4751417;30;20240;-59
2020/12/28 06:57:39;;;;;;;6.03;4.97;;;2.20;99.90;;;3.08;80.95;96956.75;4751626;30;20296;-59
2020/12/28 07:00:17;;;;;;;6.27;4.83;;;2.20;99.90;;;2.82;82.45;96962.06;4751382;30;20247;-59
2020/12/28 07:02:51;;;;;;;6.50;4.93;;;2.10;99.90;;;2.90;81.90;96961.63;4751104;30;20283;-59
2020/12/28 07:05:23;;;;;;;5.83;4.57;;;2.10;99.90;;;2.93;82.27;96964.56;4751068;30;20198;-60
2020/12/28 07:07:52;;;;;;;8.27;4.60;;;2.10;99.90;;;3.24;80.54;96965.69;4751288;30;20233;-59
2020/12/28 07:10:22;;;;;;;7.40;4.47;;;2.20;99.90;;;3.30;79.78;96960.16;4750755;30;20269;-60
2020/12/28 07:12:51;;;;;;;6.30;4.90;;;2.30;99.90;;;3.31;79.99;96959.13;4751091;30;20196;-59
2020/12/28 07:15:19;;;;;;;5.93;4.60;;;2.30;99.90;;;3.24;80.43;96955.06;4750899;30;20212;-59
2020/12/28 07:17:47;;;;;;;5.50;4.03;;;2.30;99.90;;;3.34;79.88;96955.13;4750445;30;20644;-59
2020/12/28 07:20:15;;;;;;;5.63;4.37;;;2.30;99.90;;;3.01;81.27;96956.16;4750388;30;20681;-60
2020/12/28 07:22:44;;;;;;;6.10;4.50;;;2.30;99.90;;;2.99;82.14;96954.81;4751095;30;20215;-59
2020/12/28 07:25:13;;;;;;;5.50;4.53;;;2.20;99.90;;;3.10;81.51;96954.66;4750965;30;20241;-60
2020/12/28 07:27:42;;;;;;;6.43;4.40;;;2.20;99.90;;;3.09;82.13;96946.94;4750840;30;20239;-60
2020/12/28 07:30:11;;;;;;;5.73;4.60;;;2.20;99.90;;;2.99;82.45;96946.84;4750898;30;20308;-60
2020/12/28 07:32:40;;;;;;;5.83;4.40;;;2.20;99.90;;;3.04;82.61;96941.56;4750994;30;20244;-60
2020/12/28 07:35:08;;;;;;;6.77;4.80;;;2.10;99.90;;;2.95;82.84;96941.22;4750739;30;20296;-60
2020/12/28 07:37:41;;;;;;;5.07;4.13;;;2.10;99.90;;;3.10;82.21;96941.34;4750657;30;20209;-60
2020/12/28 07:40:09;;;;;;;5.50;4.20;;;2.20;99.90;;;3.12;82.76;96935.78;4750546;30;20341;-58
2020/12/28 07:42:37;;;;;;;5.47;4.13;;;2.20;99.90;;;3.03;82.85;96942.59;4750769;30;20213;-59
2020/12/28 07:45:10;;;;;;;5.60;4.30;;;2.20;99.90;;;2.92;83.40;96946.22;4750691;30;20561;-60
2020/12/28 07:47:44;;;;;;;6.07;4.30;;;2.10;99.90;;;3.01;83.86;96950.06;4750887;30;20308;-60
2020/12/28 07:50:15;;;;;;;5.90;4.43;;;2.10;99.90;;;3.27;82.27;96951.88;4750247;30;20305;-60
2020/12/28 07:52:57;;;;;;;6.10;4.37;;;2.20;99.90;;;3.24;82.77;96952.38;4750567;30;20694;-60
2020/12/28 07:55:30;;;;;;;6.57;4.63;;;2.20;99.90;;;3.15;83.34;96951.22;4750709;30;20205;-60
2020/12/28 07:58:12;;;;;;;5.87;4.20;;;2.30;99.90;;;3.25;82.98;96961.97;4750400;30;20250;-59
2020/12/28 08:00:48;;;;;;;5.57;4.07;;;2.30;99.90;;;3.43;82.28;96974.91;4742856;30;20213;-59
2020/12/28 08:03:27;;;;;;;6.63;4.00;;;2.40;99.90;;;3.32;82.78;96974.00;4733511;30;20263;-60
2020/12/28 08:06:02;;;;;;;4.73;3.97;;;2.50;99.90;;;3.63;81.87;96977.75;4732961;30;20203;-60
2020/12/28 08:08:30;;;;;;;5.83;4.40;;;2.50;99.90;;;3.66;81.87;96958.59;4733139;30;20263;-59
2020/12/28 08:10:59;;;;;;;7.53;5.27;;;2.60;99.90;;;3.62;81.63;96974.28;4733524;30;20285;-60
2020/12/28 08:13:28;;;;;;;4.97;4.13;;;2.70;99.90;;;3.54;82.33;96977.41;4733201;30;20251;-59
2020/12/28 08:16:07;;;;;;;4.50;3.77;;;2.70;99.90;;;3.50;82.83;96980.84;4732750;30;20299;-60
2020/12/28 08:18:46;;;;;;;5.27;4.40;;;2.70;99.90;;;3.77;81.86;96978.94;4732967;30;20276;-59
2020/12/28 08:21:13;;;;;;;7.10;4.93;;;2.70;99.90;;;4.02;80.99;96979.09;4732955;30;20292;-61
2020/12/28 08:23:51;;;;;;;6.40;4.80;;;2.80;99.90;;;4.30;79.46;96981.41;4732719;30;20256;-60
2020/12/28 08:26:21;;;;;;;6.97;4.30;;;3.10;99.90;;;4.28;79.46;96988.06;4742198;30;20292;-59
2020/12/28 08:28:50;;;;;;;6.03;3.80;;;3.20;99.90;;;4.47;78.61;97003.34;4750792;30;20270;-59
2020/12/28 08:31:25;;;;;;;6.67;4.40;;;3.30;99.90;;;4.27;79.56;97013.88;4753705;30;20216;-60
2020/12/28 08:34:02;;;;;;;5.80;4.40;;;3.40;99.90;;;4.30;79.83;97008.03;4727693;30;20198;-60
2020/12/28 08:36:30;;;;;;;6.33;4.30;;;3.40;99.90;;;4.42;78.75;97007.84;4721292;30;20339;-60
2020/12/28 08:38:58;;;;;;;5.47;4.10;;;3.40;99.90;;;4.49;79.29;97003.09;4730588;30;20630;-59
2020/12/28 08:41:25;;;;;;;6.67;4.30;;;3.40;99.90;;;4.65;78.44;97004.78;4725793;30;20306;-59
2020/12/28 08:43:54;;;;;;;5.33;4.20;;;3.60;99.90;;;4.55;78.31;97010.06;4733758;30;20270;-61
2020/12/28 08:46:24;;;;;;;7.17;4.60;;;3.60;99.90;;;4.58;79.33;97005.00;4730240;30;20724;-59
2020/12/28 08:48:51;;;;;;;5.70;3.57;;;3.60;99.90;;;4.69;78.82;97009.31;4726656;30;20252;-59
2020/12/28 08:51:20;;;;;;;5.57;4.17;;;3.70;99.90;;;4.93;78.04;97007.03;4725431;30;20244;-59
2020/12/28 08:53:49;;;;;;;5.13;4.20;;;3.70;99.90;;;4.84;78.36;97000.56;4718164;30;20218;-60
2020/12/28 08:56:18;;;;;;;5.30;4.13;;;3.90;99.90;;;4.84;77.72;96998.72;4724962;30;20213;-60
2020/12/28 08:58:50;;;;;;;5.80;4.17;;;3.90;99.90;;;4.60;79.12;96996.75;4726621;30;20217;-59
2020/12/28 09:01:17;;;;;;;6.37;4.77;;;3.80;99.90;;;4.62;79.11;96994.63;4747334;30;20563;-59
2020/12/28 09:03:44;;;;;;;4.83;3.83;;;3.80;99.90;;;4.72;78.76;96986.66;4750300;30;20218;-60
2020/12/28 09:06:12;;;;;;;6.47;4.40;;;3.80;99.90;;;4.55;79.84;96997.53;4749930;30;20253;-60
2020/12/28 09:08:40;;;;;;;6.40;4.37;;;3.70;99.90;;;5.01;78.14;96992.41;4749889;30;20261;-60
2020/12/28 09:11:09;;;;;;;6.60;5.13;;;3.90;99.90;;;4.90;78.28;96989.66;4749947;30;20236;-61
2020/12/28 09:13:37;;;;;;;5.63;4.27;;;3.90;99.90;;;4.92;78.28;96984.09;4749934;30;20214;-61
2020/12/28 09:16:06;;;;;;;5.90;4.50;;;3.90;99.90;;;5.02;77.78;96988.66;4749588;30;20222;-62
2020/12/28 09:18:33;;;;;;;6.10;4.57;;;4.00;99.90;;;5.01;78.70;96992.41;4734128;30;20218;-62
2020/12/28 09:21:01;;;;;;;4.70;3.70;;;4.10;99.90;;;5.28;77.47;96992.97;4749631;30;20618;-63
2020/12/28 09:23:28;;;;;;;6.63;4.70;;;4.10;99.90;;;5.16;77.36;96990.53;4749920;30;20274;-59
2020/12/28 09:25:55;;;;;;;5.77;4.40;;;4.20;99.90;;;5.45;76.66;96991.69;4749014;30;20752;-57
2020/12/28 09:28:22;;;;;;;7.03;4.33;;;4.30;99.90;;;5.53;75.90;96985.81;4749139;30;20230;-59
2020/12/28 09:30:51;;;;;;;5.50;4.20;;;4.40;99.90;;;5.53;76.29;96977.81;4749296;30;20383;-59
2020/12/28 09:33:18;;;;;;;5.47;4.30;;;4.50;99.90;;;5.68;75.60;96977.03;4749250;30;20759;-57
2020/12/28 09:35:45;;;;;;;5.50;3.70;;;4.60;99.90;;;5.73;74.98;96975.13;4749295;30;20288;-58
2020/12/28 09:38:13;;;;;;;6.37;4.47;;;4.70;99.90;;;5.74;75.09;96975.94;4748969;30;20270;-59
2020/12/28 09:40:40;;;;;;;4.57;3.53;;;4.70;99.90;;;6.00;74.61;96981.03;4748278;30;20649;-60
2020/12/28 09:43:13;;;;;;;6.67;4.40;;;4.80;99.90;;;6.15;73.55;96970.34;4749262;30;20261;-57
2020/12/28 09:45:40;;;;;;;6.10;4.10;;;5.00;99.90;;;6.07;73.44;96973.56;4749121;30;20336;-59
2020/12/28 09:48:08;;;;;;;5.43;3.77;;;5.00;99.90;;;5.96;74.39;96979.19;4748844;30;20330;-60
2020/12/28 09:50:55;;;;;;;5.50;4.00;;;5.00;99.90;;;6.05;74.11;96986.38;4748926;30;20217;-60
2020/12/28 09:53:23;;;;;;;5.67;4.00;;;5.10;99.90;;;6.04;74.01;96984.78;4749126;30;20302;-61
2020/12/28 09:55:50;;;;;;;6.20;4.30;;;5.10;99.90;;;6.01;73.96;96992.53;4749084;30;20241;-62
2020/12/28 09:58:17;;;;;;;4.20;3.50;;;5.10;99.90;;;6.04;73.77;96989.31;4748816;30;20245;-59
2020/12/28 10:00:45;;;;;;;5.47;4.33;;;5.10;99.90;;;5.98;73.98;96990.41;4748448;30;20293;-59
2020/12/28 10:03:13;;;;;;;5.53;4.17;;;5.10;99.90;;;5.99;74.46;96989.31;4748611;30;20243;-59
2020/12/28 10:05:40;;;;;;;5.73;4.13;;;5.10;99.90;;;6.22;73.54;96980.75;4748858;30;20231;-60
2020/12/28 10:08:07;;;;;;;5.40;4.00;;;5.10;99.90;;;6.60;71.42;96985.47;4748740;30;20240;-60
2020/12/28 10:10:35;;;;;;;5.70;4.07;;;5.30;99.90;;;6.64;72.17;96980.38;4748449;30;20211;-60
2020/12/28 10:13:02;;;;;;;5.10;4.20;;;5.40;99.90;;;6.60;71.21;96974.78;4748161;30;20211;-61
2020/12/28 10:15:29;;;;;;;4.87;4.00;;;5.50;99.90;;;6.51;72.20;96984.41;4748161;30;20303;-61
2020/12/28 10:18:41;;;;;;;5.97;4.17;;;5.50;99.90;;;6.77;71.78;96990.47;4748440;30;20238;-61
2020/12/28 10:21:10;;;;;;;5.17;4.10;;;5.60;99.90;;;6.79;72.28;96985.66;4748469;30;20273;-60
2020/12/28 10:23:38;;;;;;;5.87;4.00;;;5.70;99.90;;;6.77;71.06;96991.28;4748153;30;20735;-61
2020/12/28 10:26:06;;;;;;;5.87;3.40;;;5.70;99.90;;;6.55;71.71;96985.47;4748376;30;20303;-60
2020/12/28 10:28:35;;;;;;;4.63;4.00;;;5.70;99.90;;;6.63;71.60;96984.91;4747745;30;20264;-60
2020/12/28 10:31:07;;;;;;;6.50;3.80;;;5.60;99.90;;;6.69;71.50;96983.84;4748144;30;20262;-60
2020/12/28 10:33:35;;;;;;;6.30;4.33;;;5.70;99.90;;;6.56;72.20;96972.94;4748327;30;20225;-60
2020/12/28 10:36:03;;;;;;;4.87;3.90;;;5.60;99.90;;;6.64;71.72;96970.50;4748059;30;20263;-61
2020/12/28 10:38:30;;;;;;;6.17;4.20;;;5.60;99.90;;;6.85;71.12;96963.19;4748017;30;20691;-60
2020/12/28 10:40:58;;;;;;;5.67;3.60;;;5.70;99.90;;;6.92;70.00;96961.00;4748162;30;20215;-59